createdAt,value
2017-11-28T00:00:25.981Z,5.70
2017-11-28T00:02:55.752Z,5.70
2017-11-28T00:05:24.728Z,5.70
2017-11-28T00:07:54.036Z,5.60
2017-11-28T00:10:23.496Z,5.70
2017-11-28T00:12:52.511Z,5.70
2017-11-28T00:15:21.659Z,5.60
2017-11-28T00:17:50.833Z,5.50
2017-11-28T00:20:20.275Z,5.50
2017-11-28T00:22:49.917Z,5.50
2017-11-28T00:25:19.760Z,5.40
2017-11-28T00:27:48.764Z,5.50
2017-11-28T00:30:17.772Z,5.50
2017-11-28T00:32:47.519Z,5.40
2017-11-28T00:35:16.565Z,5.40
2017-11-28T00:37:45.607Z,5.40
2017-11-28T00:40:14.847Z,5.40
2017-11-28T00:42:44.593Z,5.40
2017-11-28T00:45:13.722Z,5.40
2017-11-28T00:47:42.740Z,5.40
2017-11-28T00:50:24.676Z,5.50
2017-11-28T00:52:54.311Z,5.60
2017-11-28T00:55:36.612Z,5.70
2017-11-28T00:58:05.616Z,5.60
2017-11-28T01:03:11.711Z,5.50
2017-11-28T01:05:40.718Z,5.40
2017-11-28T01:08:09.682Z,5.40
2017-11-28T01:13:44.839Z,5.50
2017-11-28T01:16:25.094Z,5.40
2017-11-28T01:18:57.329Z,5.40
2017-11-28T01:21:26.615Z,5.30
2017-11-28T01:23:55.603Z,5.30
2017-11-28T01:26:24.966Z,5.30
2017-11-28T01:28:53.960Z,5.30
2017-11-28T01:31:23.057Z,5.30
2017-11-28T01:33:52.045Z,5.40
2017-11-28T01:36:21.070Z,5.30
2017-11-28T01:38:50.389Z,5.30
2017-11-28T01:41:19.356Z,5.30
2017-11-28T01:43:48.719Z,5.40
2017-11-28T01:46:17.716Z,5.30
2017-11-28T01:48:46.670Z,5.40
2017-11-28T01:51:16.079Z,5.30
2017-11-28T01:53:45.431Z,5.40
2017-11-28T01:56:14.450Z,5.40
2017-11-28T01:58:44.218Z,5.30
2017-11-28T02:01:13.205Z,5.30
2017-11-28T02:03:42.175Z,5.30
2017-11-28T02:08:52.111Z,5.30
2017-11-28T02:11:22.155Z,5.30
2017-11-28T02:13:51.342Z,5.30
2017-11-28T02:16:20.985Z,5.30
2017-11-28T02:18:50.004Z,5.30
2017-11-28T02:21:18.998Z,5.30
2017-11-28T02:23:48.082Z,5.20
2017-11-28T02:26:17.893Z,5.20
2017-11-28T02:28:47.080Z,5.20
2017-11-28T02:31:16.113Z,5.20
2017-11-28T02:33:45.133Z,5.20
2017-11-28T02:36:14.215Z,5.30
2017-11-28T02:38:43.564Z,5.30
2017-11-28T02:41:14.351Z,5.30
2017-11-28T02:43:43.344Z,5.30
2017-11-28T02:46:14.292Z,5.30
2017-11-28T02:48:44.322Z,5.40
2017-11-28T02:51:14.483Z,5.40
2017-11-28T02:53:44.454Z,5.40
2017-11-28T02:56:13.587Z,5.40
2017-11-28T02:58:49.795Z,5.40
2017-11-28T03:01:19.654Z,5.40
2017-11-28T03:03:49.002Z,5.30
2017-11-28T03:06:17.961Z,5.40
2017-11-28T03:08:48.504Z,5.40
2017-11-28T03:11:18.563Z,5.40
2017-11-28T03:13:47.554Z,5.30
2017-11-28T03:16:18.392Z,5.40
2017-11-28T03:18:51.930Z,5.40
2017-11-28T03:21:21.994Z,5.40
2017-11-28T03:24:17.667Z,5.40
2017-11-28T03:26:46.709Z,5.30
2017-11-28T03:42:41.848Z,5.30
2017-11-28T03:45:21.426Z,5.40
2017-11-28T03:47:50.840Z,5.30
2017-11-28T03:50:19.856Z,5.40
2017-11-28T03:52:49.784Z,5.30
2017-11-28T03:55:18.807Z,5.30
2017-11-28T03:57:48.567Z,5.20
2017-11-28T04:00:29.242Z,5.20
2017-11-28T04:02:58.232Z,5.20
2017-11-28T04:05:28.043Z,5.20
2017-11-28T04:07:57.117Z,5.20
2017-11-28T04:10:26.098Z,5.10
2017-11-28T04:12:55.054Z,5.10
2017-11-28T04:15:25.009Z,5.10
2017-11-28T04:17:54.076Z,5.10
2017-11-28T04:20:23.085Z,5.10
2017-11-28T04:22:52.525Z,5.00
2017-11-28T04:25:21.548Z,5.00
2017-11-28T04:27:50.507Z,5.00
2017-11-28T04:30:19.513Z,5.00
2017-11-28T04:32:48.469Z,5.00
2017-11-28T04:35:18.086Z,5.10
2017-11-28T04:37:47.175Z,5.00
2017-11-28T04:40:33.000Z,5.00
2017-11-28T04:43:03.738Z,5.00
2017-11-28T04:45:32.698Z,5.00
2017-11-28T04:48:01.815Z,5.00
2017-11-28T04:50:30.797Z,5.20
2017-11-28T04:52:59.812Z,5.30
2017-11-28T04:55:28.851Z,5.30
2017-11-28T04:57:57.866Z,5.30
2017-11-28T05:00:26.846Z,5.40
2017-11-28T05:02:55.801Z,5.40
2017-11-28T05:05:26.410Z,5.30
2017-11-28T05:07:55.458Z,5.30
2017-11-28T05:10:25.195Z,5.40
2017-11-28T05:12:54.272Z,5.20
2017-11-28T05:15:23.251Z,5.20
2017-11-28T05:17:52.236Z,5.20
2017-11-28T05:20:22.074Z,5.20
2017-11-28T05:22:51.232Z,5.30
2017-11-28T05:25:21.002Z,5.30
2017-11-28T05:27:50.374Z,5.30
2017-11-28T05:30:19.326Z,5.40
2017-11-28T05:32:48.473Z,5.20
2017-11-28T05:35:17.467Z,5.20
2017-11-28T05:37:46.471Z,5.20
2017-11-28T05:40:15.732Z,5.20
2017-11-28T05:42:45.477Z,5.20
2017-11-28T05:45:14.457Z,5.30
2017-11-28T05:47:43.506Z,5.30
2017-11-28T05:50:12.516Z,5.30
2017-11-28T05:52:42.230Z,5.40
2017-11-28T05:55:11.342Z,5.40
2017-11-28T05:57:40.891Z,5.40
2017-11-28T06:00:09.915Z,5.50
2017-11-28T06:02:39.735Z,5.60
2017-11-28T06:05:09.089Z,5.50
2017-11-28T06:07:38.255Z,5.50
2017-11-28T06:10:07.270Z,5.50
2017-11-28T06:12:36.270Z,5.50
2017-11-28T06:15:06.127Z,5.60
2017-11-28T06:17:35.512Z,5.60
2017-11-28T06:20:05.297Z,5.70
2017-11-28T06:22:34.292Z,5.70
2017-11-28T06:25:03.271Z,5.70
2017-11-28T06:27:32.383Z,5.70
2017-11-28T06:30:01.363Z,5.80
2017-11-28T06:32:30.353Z,5.70
2017-11-28T06:34:59.484Z,5.70
2017-11-28T06:37:29.199Z,5.80
2017-11-28T06:39:59.259Z,5.70
2017-11-28T06:42:28.407Z,5.80
2017-11-28T06:44:57.433Z,5.80
2017-11-28T06:47:27.234Z,5.90
2017-11-28T06:49:56.215Z,5.90
2017-11-28T06:52:25.976Z,5.80
2017-11-28T06:54:54.930Z,5.80
2017-11-28T06:57:24.013Z,5.70
2017-11-28T07:00:04.300Z,5.70
2017-11-28T07:02:33.282Z,5.70
2017-11-28T07:05:02.622Z,5.70
2017-11-28T07:07:32.359Z,5.80
2017-11-28T07:10:01.344Z,5.80
2017-11-28T07:12:30.310Z,5.80
2017-11-28T07:15:00.210Z,5.80
2017-11-28T07:17:29.198Z,5.80
2017-11-28T07:19:58.244Z,5.80
2017-11-28T07:22:27.243Z,5.70
2017-11-28T07:24:56.985Z,5.80
2017-11-28T07:27:26.071Z,5.90
2017-11-28T07:29:55.259Z,5.90
2017-11-28T07:32:24.217Z,5.90
2017-11-28T07:34:54.090Z,5.90
2017-11-28T07:37:23.136Z,5.80
2017-11-28T07:39:52.142Z,5.90
2017-11-28T07:42:21.899Z,5.90
2017-11-28T07:44:51.417Z,5.80
2017-11-28T07:47:20.497Z,5.70
2017-11-28T07:49:49.526Z,5.70
2017-11-28T07:52:18.511Z,5.70
2017-11-28T07:54:47.539Z,5.80
2017-11-28T07:57:17.264Z,5.80
2017-11-28T07:59:46.283Z,5.80
2017-11-28T08:02:15.264Z,6.00
2017-11-28T08:04:44.470Z,6.10
2017-11-28T08:07:14.202Z,6.20
2017-11-28T08:09:43.190Z,6.10
2017-11-28T08:12:12.583Z,6.10
2017-11-28T08:14:42.269Z,6.30
2017-11-28T08:17:12.207Z,6.30
2017-11-28T08:19:41.208Z,6.20
2017-11-28T08:22:10.508Z,6.20
2017-11-28T08:24:39.495Z,6.20
2017-11-28T08:27:08.763Z,6.30
2017-11-28T08:29:39.160Z,6.30
2017-11-28T08:32:09.361Z,6.30
2017-11-28T08:34:39.554Z,6.20
2017-11-28T08:37:10.139Z,6.10
2017-11-28T08:39:39.173Z,6.00
2017-11-28T08:42:08.165Z,6.00
2017-11-28T08:44:37.205Z,6.10
2017-11-28T08:47:07.034Z,6.10
2017-11-28T08:49:43.997Z,6.20
2017-11-28T08:52:13.716Z,6.80
2017-11-28T08:54:42.824Z,6.50
2017-11-28T08:57:16.292Z,6.50
2017-11-28T08:59:47.113Z,6.50
2017-11-28T09:02:16.838Z,6.30
2017-11-28T09:04:49.080Z,6.30
2017-11-28T09:07:18.993Z,6.30
2017-11-28T09:09:47.957Z,6.20
2017-11-28T09:12:18.104Z,6.30
2017-11-28T09:14:47.562Z,6.40
2017-11-28T09:17:16.527Z,6.50
2017-11-28T09:19:47.065Z,6.60
2017-11-28T09:22:16.833Z,6.50
2017-11-28T09:24:45.830Z,6.50
2017-11-28T09:27:15.581Z,6.40
2017-11-28T09:29:49.843Z,6.30
2017-11-28T09:32:19.065Z,6.40
2017-11-28T09:34:48.817Z,6.30
2017-11-28T09:37:18.577Z,6.30
2017-11-28T09:39:47.559Z,6.30
2017-11-28T09:42:16.571Z,6.40
2017-11-28T09:44:45.576Z,6.40
2017-11-28T09:47:15.532Z,6.40
2017-11-28T09:49:44.652Z,6.30
2017-11-28T09:52:13.718Z,6.20
2017-11-28T09:54:42.797Z,6.30
2017-11-28T09:57:11.862Z,6.30
2017-11-28T09:59:40.818Z,6.40
2017-11-28T10:02:10.336Z,6.40
2017-11-28T10:04:39.299Z,6.30
2017-11-28T10:07:08.291Z,6.40
2017-11-28T10:09:37.310Z,6.40
2017-11-28T10:12:06.276Z,6.40
2017-11-28T10:14:35.238Z,6.50
2017-11-28T10:17:04.221Z,6.50
2017-11-28T10:19:33.590Z,6.60
2017-11-28T10:22:02.556Z,6.60
2017-11-28T10:24:32.709Z,6.60
2017-11-28T10:27:02.559Z,6.60
2017-11-28T10:29:34.180Z,7.50
2017-11-28T10:32:03.179Z,6.70
2017-11-28T10:34:33.176Z,6.70
2017-11-28T10:37:02.624Z,6.70
2017-11-28T10:39:32.006Z,6.70
2017-11-28T10:42:01.035Z,6.80
2017-11-28T10:44:30.797Z,6.90
2017-11-28T10:46:59.789Z,7.00
2017-11-28T10:49:30.232Z,7.00
2017-11-28T10:51:59.203Z,7.10
2017-11-28T10:54:29.150Z,7.00
2017-11-28T10:56:58.972Z,6.80
2017-11-28T10:59:28.738Z,6.90
2017-11-28T11:01:57.961Z,7.10
2017-11-28T11:04:26.954Z,7.20
2017-11-28T11:06:56.685Z,7.10
2017-11-28T11:09:25.685Z,7.00
2017-11-28T11:11:54.640Z,7.10
2017-11-28T11:14:23.654Z,7.40
2017-11-28T11:16:53.366Z,7.40
2017-11-28T11:19:22.840Z,7.50
2017-11-28T11:21:53.314Z,7.70
2017-11-28T11:24:22.620Z,7.60
2017-11-28T11:26:51.597Z,7.70
2017-11-28T11:29:20.583Z,7.80
2017-11-28T11:31:50.380Z,8.10
2017-11-28T11:34:19.727Z,8.40
2017-11-28T11:36:48.735Z,8.80
2017-11-28T11:39:17.875Z,8.90
2017-11-28T11:41:46.882Z,8.60
2017-11-28T11:44:15.883Z,8.60
2017-11-28T11:46:44.842Z,8.40
2017-11-28T11:49:14.588Z,8.10
2017-11-28T11:51:43.559Z,8.00
2017-11-28T11:54:13.323Z,7.80
2017-11-28T11:56:42.717Z,7.80
2017-11-28T11:59:11.714Z,7.60
2017-11-28T12:01:56.360Z,7.60
2017-11-28T12:04:28.949Z,7.90
2017-11-28T12:06:57.877Z,8.40
2017-11-28T12:09:26.851Z,8.50
2017-11-28T12:11:55.835Z,8.20
2017-11-28T12:14:24.835Z,8.20
2017-11-28T12:16:54.011Z,8.40
2017-11-28T12:19:22.974Z,8.50
2017-11-28T12:21:51.936Z,8.50
2017-11-28T12:24:20.917Z,8.30
2017-11-28T12:26:50.658Z,8.20
2017-11-28T12:29:19.634Z,8.10
2017-11-28T12:31:48.597Z,7.60
2017-11-28T12:34:17.587Z,7.40
2017-11-28T12:36:46.551Z,7.30
2017-11-28T12:39:15.625Z,7.20
2017-11-28T12:41:44.676Z,7.10
2017-11-28T12:44:13.655Z,6.90
2017-11-28T12:46:44.123Z,6.90
2017-11-28T12:49:14.187Z,6.90
2017-11-28T12:51:43.166Z,6.80
2017-11-28T12:54:12.133Z,6.90
2017-11-28T12:56:41.219Z,6.90
2017-11-28T12:59:11.678Z,6.80
2017-11-28T13:01:41.769Z,6.80
2017-11-28T13:04:10.716Z,6.80
2017-11-28T13:06:39.987Z,6.90
2017-11-28T13:09:08.941Z,7.00
2017-11-28T13:11:38.995Z,7.20
2017-11-28T13:14:10.161Z,7.20
2017-11-28T13:16:39.294Z,7.20
2017-11-28T13:19:08.235Z,7.00
2017-11-28T13:21:37.978Z,6.80
2017-11-28T13:24:06.955Z,6.70
2017-11-28T13:26:36.661Z,6.70
2017-11-28T13:29:06.444Z,6.70
2017-11-28T13:31:39.510Z,6.80
2017-11-28T13:34:09.257Z,6.70
2017-11-28T13:36:39.457Z,6.60
2017-11-28T13:39:08.706Z,6.60
2017-11-28T13:41:39.023Z,6.70
2017-11-28T13:44:07.993Z,6.70
2017-11-28T13:46:37.768Z,6.70
2017-11-28T13:49:07.527Z,6.70
2017-11-28T13:51:36.610Z,6.70
2017-11-28T13:54:05.971Z,6.60
2017-11-28T13:56:35.706Z,6.60
2017-11-28T13:59:04.683Z,6.70
2017-11-28T14:01:33.656Z,6.70
2017-11-28T14:04:03.676Z,6.70
2017-11-28T14:06:33.402Z,6.80
2017-11-28T14:09:02.354Z,6.70
2017-11-28T14:11:32.877Z,6.70
2017-11-28T14:14:02.645Z,6.60
2017-11-28T14:16:31.618Z,6.70
2017-11-28T14:19:00.611Z,6.70
2017-11-28T14:21:32.414Z,6.60
2017-11-28T14:24:06.878Z,6.60
2017-11-28T14:26:41.991Z,6.40
2017-11-28T14:29:27.091Z,6.40
2017-11-28T14:45:35.762Z,6.20
2017-11-28T14:48:04.731Z,6.20
2017-11-28T14:50:40.027Z,6.10
2017-11-28T14:53:09.747Z,6.10
2017-11-28T14:55:55.201Z,6.10
2017-11-28T14:58:41.814Z,6.10
2017-11-28T15:01:17.254Z,6.20
2017-11-28T15:03:51.845Z,6.20
2017-11-28T15:06:28.953Z,6.20
2017-11-28T15:09:03.494Z,6.20
2017-11-28T15:11:49.811Z,6.30
2017-11-28T15:14:24.710Z,6.20
2017-11-28T15:17:00.111Z,6.20
2017-11-28T15:19:29.075Z,6.00
2017-11-28T15:22:02.053Z,6.00
2017-11-28T15:24:33.342Z,6.00
2017-11-28T15:27:02.345Z,5.90
2017-11-28T15:29:33.571Z,5.90
2017-11-28T15:32:05.933Z,5.70
2017-11-28T15:34:35.677Z,5.80
2017-11-28T15:37:04.697Z,5.70
2017-11-28T15:39:44.741Z,5.80
2017-11-28T15:42:14.533Z,5.80
2017-11-28T15:44:44.339Z,5.80
2017-11-28T15:47:13.650Z,5.80
2017-11-28T15:49:42.996Z,5.70
2017-11-28T15:52:12.316Z,5.60
2017-11-28T15:54:42.149Z,5.60
2017-11-28T15:57:20.009Z,5.50
2017-11-28T15:59:48.971Z,5.70
2017-11-28T16:02:20.508Z,5.70
2017-11-28T16:04:49.621Z,5.80
2017-11-28T16:07:22.354Z,5.80
2017-11-28T16:09:52.126Z,5.80
2017-11-28T16:12:21.095Z,5.80
2017-11-28T16:14:51.252Z,5.80
2017-11-28T16:17:20.393Z,5.70
2017-11-28T16:19:49.535Z,5.60
2017-11-28T16:22:18.513Z,5.50
2017-11-28T16:24:48.325Z,5.40
2017-11-28T16:27:18.093Z,5.40
2017-11-28T16:29:47.577Z,5.40
2017-11-28T16:32:18.805Z,5.40
2017-11-28T16:34:48.353Z,5.40
2017-11-28T16:37:17.397Z,5.30
2017-11-28T16:39:46.383Z,5.40
2017-11-28T16:42:15.381Z,5.30
2017-11-28T16:44:44.822Z,5.40
2017-11-28T16:47:13.858Z,5.40
2017-11-28T16:49:43.691Z,5.50
2017-11-28T16:52:13.065Z,5.50
2017-11-28T16:54:42.470Z,5.40
2017-11-28T16:57:11.829Z,5.40
2017-11-28T16:59:42.652Z,5.40
2017-11-28T17:02:11.640Z,5.50
2017-11-28T17:04:40.693Z,5.50
2017-11-28T17:07:10.433Z,5.50
2017-11-28T17:09:39.431Z,5.50
2017-11-28T17:12:08.406Z,5.50
2017-11-28T17:14:37.749Z,5.50
2017-11-28T17:17:07.577Z,5.50
2017-11-28T17:19:36.551Z,5.50
2017-11-28T17:22:05.526Z,5.50
2017-11-28T17:24:40.678Z,5.50
2017-11-28T17:27:10.129Z,5.50
2017-11-28T17:29:39.078Z,5.40
2017-11-28T17:32:08.487Z,5.40
2017-11-28T17:34:37.531Z,5.40
2017-11-28T17:37:07.334Z,5.40
2017-11-28T17:39:36.789Z,5.40
2017-11-28T17:42:05.821Z,5.40
2017-11-28T17:44:35.174Z,5.40
2017-11-28T17:47:04.574Z,5.40
2017-11-28T17:49:33.549Z,5.40
2017-11-28T17:52:02.596Z,5.30
2017-11-28T17:54:31.645Z,5.40
2017-11-28T17:57:01.127Z,5.30
2017-11-28T17:59:31.019Z,5.40
2017-11-28T18:02:00.757Z,5.40
2017-11-28T18:04:30.504Z,5.40
2017-11-28T18:07:00.615Z,5.30
2017-11-28T18:09:29.637Z,5.30
2017-11-28T18:11:58.713Z,5.30
2017-11-28T18:14:27.676Z,5.30
2017-11-28T18:16:57.557Z,5.30
2017-11-28T18:19:27.478Z,5.20
2017-11-28T18:21:56.445Z,5.20
2017-11-28T18:24:25.435Z,5.20
2017-11-28T18:26:54.464Z,5.20
2017-11-28T18:29:23.606Z,5.20
2017-11-28T18:31:53.348Z,5.30
2017-11-28T18:34:23.158Z,5.20
2017-11-28T18:36:52.160Z,5.20
2017-11-28T18:39:26.825Z,5.20
2017-11-28T18:41:55.809Z,5.20
2017-11-28T18:44:25.630Z,5.10
2017-11-28T18:46:54.754Z,5.10
2017-11-28T18:49:24.500Z,5.10
2017-11-28T18:51:54.319Z,5.10
2017-11-28T18:54:23.745Z,5.00
2017-11-28T18:56:52.748Z,5.00
2017-11-28T18:59:22.510Z,5.00
2017-11-28T19:01:52.315Z,4.90
2017-11-28T19:04:22.177Z,4.90
2017-11-28T19:06:52.466Z,5.00
2017-11-28T19:09:22.016Z,5.00
2017-11-28T19:11:52.132Z,4.90
2017-11-28T19:14:21.355Z,5.00
2017-11-28T19:16:51.106Z,4.90
2017-11-28T19:19:21.690Z,4.90
2017-11-28T19:21:51.468Z,4.80
2017-11-28T19:24:20.981Z,4.80
2017-11-28T19:26:50.125Z,4.80
2017-11-28T19:29:19.787Z,4.80
2017-11-28T19:31:48.855Z,4.70
2017-11-28T19:34:18.535Z,4.70
2017-11-28T19:36:48.393Z,4.60
2017-11-28T19:39:17.444Z,4.70
2017-11-28T19:41:47.366Z,4.80
2017-11-28T19:44:16.405Z,4.90
2017-11-28T19:46:46.809Z,4.80
2017-11-28T19:49:15.930Z,4.70
2017-11-28T19:51:45.456Z,4.60
2017-11-28T19:54:14.902Z,4.60
2017-11-28T19:56:43.920Z,4.60
2017-11-28T19:59:12.959Z,4.70
2017-11-28T20:01:42.925Z,4.70
2017-11-28T20:04:11.999Z,4.60
2017-11-28T20:06:42.352Z,4.60
2017-11-28T20:09:13.064Z,4.60
2017-11-28T20:11:42.266Z,4.70
2017-11-28T20:14:12.556Z,4.60
2017-11-28T20:16:41.652Z,4.60
2017-11-28T20:19:10.661Z,4.50
2017-11-28T20:21:40.586Z,4.50
2017-11-28T20:24:09.605Z,4.60
2017-11-28T20:26:38.918Z,4.70
2017-11-28T20:29:08.523Z,4.80
2017-11-28T20:31:38.113Z,4.80
2017-11-28T20:34:07.252Z,4.80
2017-11-28T20:36:36.679Z,4.90
2017-11-28T20:39:05.777Z,4.90
2017-11-28T20:41:36.027Z,4.90
2017-11-28T20:44:05.816Z,4.80
2017-11-28T20:46:35.075Z,4.80
2017-11-28T20:49:09.664Z,4.80
2017-11-28T20:51:39.101Z,4.90
2017-11-28T20:54:08.984Z,4.80
2017-11-28T20:56:39.287Z,4.80
2017-11-28T20:59:09.455Z,4.80
2017-11-28T21:01:39.965Z,4.80
2017-11-28T21:04:10.217Z,4.70
2017-11-28T21:06:40.317Z,4.80
2017-11-28T21:14:41.027Z,4.80
2017-11-28T21:17:11.004Z,4.90
2017-11-28T21:19:40.983Z,4.90
2017-11-28T21:22:10.088Z,4.90
2017-11-28T21:24:39.556Z,5.00
2017-11-28T21:27:08.624Z,5.00
2017-11-28T21:29:37.669Z,5.10
2017-11-28T21:32:07.499Z,5.10
2017-11-28T21:34:36.880Z,5.10
2017-11-28T21:37:05.951Z,5.10
2017-11-28T21:39:35.877Z,5.00
2017-11-28T21:42:05.011Z,4.90
2017-11-28T21:44:35.807Z,4.90
2017-11-28T21:47:05.878Z,5.00
2017-11-28T21:49:36.575Z,4.90
2017-11-28T21:52:06.745Z,5.10
2017-11-28T21:54:35.813Z,5.00
2017-11-28T21:57:05.596Z,5.00
2017-11-28T21:59:35.413Z,5.00
2017-11-28T22:02:05.297Z,5.00
2017-11-28T22:04:34.814Z,5.00
2017-11-28T22:07:04.400Z,5.00
2017-11-28T22:09:34.197Z,5.00
2017-11-28T22:12:03.324Z,5.00
2017-11-28T22:14:33.243Z,4.90
2017-11-28T22:17:03.047Z,4.90
2017-11-28T22:19:32.839Z,4.90
2017-11-28T22:22:02.723Z,4.90
2017-11-28T22:24:32.968Z,4.80
2017-11-28T22:27:02.700Z,4.70
2017-11-28T22:29:32.127Z,4.70
2017-11-28T22:32:01.164Z,4.60
2017-11-28T22:34:30.176Z,4.70
2017-11-28T22:36:59.548Z,4.70
2017-11-28T22:39:29.288Z,4.60
2017-11-28T22:41:58.953Z,4.60
2017-11-28T22:44:28.724Z,3.40
2017-11-28T22:46:57.685Z,4.80
2017-11-28T22:49:27.516Z,4.80
2017-11-28T22:51:56.639Z,4.70
2017-11-28T22:54:25.589Z,4.80
2017-11-28T22:56:56.456Z,4.70
2017-11-28T22:59:25.921Z,4.70
2017-11-28T23:01:55.686Z,4.60
2017-11-28T23:04:25.027Z,4.60
2017-11-28T23:06:54.618Z,4.60
2017-11-28T23:09:25.121Z,4.60
2017-11-28T23:11:54.518Z,4.70
2017-11-28T23:14:33.761Z,4.70
2017-11-28T23:17:02.914Z,4.80
2017-11-28T23:19:32.698Z,4.80
2017-11-28T23:22:02.114Z,4.80
2017-11-28T23:24:31.864Z,4.90
2017-11-28T23:27:12.891Z,5.00
2017-11-28T23:29:41.876Z,5.00
2017-11-28T23:32:10.849Z,4.90
2017-11-28T23:34:39.841Z,5.00
2017-11-28T23:37:22.443Z,5.00
2017-11-28T23:39:51.849Z,4.90
2017-11-28T23:42:22.415Z,4.90
2017-11-28T23:44:52.223Z,4.90
2017-11-28T23:47:21.240Z,4.80
2017-11-28T23:49:51.799Z,4.80
2017-11-28T23:55:28.491Z,4.80
2017-11-28T23:57:57.421Z,4.80
